sensor_id;sensor_type;location;lat;lon;timestamp;pressure;altitude;pressure_sealevel;temperature;humidity
3796;BME280;1913;50.660;7.834;2023-02-18T00:01:19;97858.34;;;9.19;100.00
3796;BME280;1913;50.660;7.834;2023-02-18T00:03:45;97850.59;;;9.26;100.00
3796;BME280;1913;50.660;7.834;2023-02-18T00:06:16;97850.28;;;9.21;100.00
3796;BME280;1913;50.660;7.834;2023-02-18T00:08:43;97853.03;;;9.27;100.00
3796;BME280;1913;50.660;7.834;2023-02-18T00:11:09;97856.28;;;9.29;100.00
3796;BME280;1913;50.660;7.834;2023-02-18T00:13:35;97868.50;;;9.22;100.00
3796;BME280;1913;50.660;7.834;2023-02-18T00:16:02;97866.59;;;9.31;100.00
3796;BME280;1913;50.660;7.834;2023-02-18T00:18:28;97861.69;;;9.28;100.00
3796;BME280;1913;50.660;7.834;2023-02-18T00:20:54;97870.09;;;9.23;100.00
3796;BME280;1913;50.660;7.834;2023-02-18T00:23:19;97869.38;;;9.15;100.00
3796;BME280;1913;50.660;7.834;2023-02-18T00:25:44;97867.09;;;9.11;100.00
3796;BME280;1913;50.660;7.834;2023-02-18T00:28:10;97876.50;;;9.21;100.00
3796;BME280;1913;50.660;7.834;2023-02-18T00:30:39;97870.00;;;9.17;100.00
3796;BME280;1913;50.660;7.834;2023-02-18T00:33:05;97870.31;;;9.22;100.00
3796;BME280;1913;50.660;7.834;2023-02-18T00:35:30;97865.69;;;9.24;100.00
3796;BME280;1913;50.660;7.834;2023-02-18T00:37:56;97860.16;;;9.19;100.00
3796;BME280;1913;50.660;7.834;2023-02-18T00:40:21;97842.72;;;9.26;100.00
3796;BME280;1913;50.660;7.834;2023-02-18T00:42:46;97846.31;;;9.25;100.00
3796;BME280;1913;50.660;7.834;2023-02-18T00:45:12;97842.63;;;9.19;100.00
3796;BME280;1913;50.660;7.834;2023-02-18T00:47:38;97842.78;;;9.18;100.00
3796;BME280;1913;50.660;7.834;2023-02-18T00:50:03;97844.31;;;9.12;100.00
3796;BME280;1913;50.660;7.834;2023-02-18T00:52:29;97841.50;;;9.14;100.00
3796;BME280;1913;50.660;7.834;2023-02-18T00:54:54;97837.38;;;9.19;100.00
3796;BME280;1913;50.660;7.834;2023-02-18T00:57:20;97834.97;;;9.09;100.00
3796;BME280;1913;50.660;7.834;2023-02-18T00:59:45;97839.53;;;9.16;100.00
3796;BME280;1913;50.660;7.834;2023-02-18T01:02:10;97842.50;;;9.13;100.00
3796;BME280;1913;50.660;7.834;2023-02-18T01:04:36;97843.31;;;9.13;100.00
3796;BME280;1913;50.660;7.834;2023-02-18T01:07:01;97840.81;;;9.20;100.00
3796;BME280;1913;50.660;7.834;2023-02-18T01:09:26;97832.38;;;9.09;100.00
3796;BME280;1913;50.660;7.834;2023-02-18T01:11:52;97818.19;;;9.19;100.00
3796;BME280;1913;50.660;7.834;2023-02-18T01:14:17;97818.81;;;9.21;100.00
3796;BME280;1913;50.660;7.834;2023-02-18T01:16:43;97821.34;;;9.14;100.00
3796;BME280;1913;50.660;7.834;2023-02-18T01:19:08;97813.00;;;9.10;100.00
3796;BME280;1913;50.660;7.834;2023-02-18T01:21:34;97808.88;;;9.16;100.00
3796;BME280;1913;50.660;7.834;2023-02-18T01:23:59;97805.44;;;9.16;100.00
3796;BME280;1913;50.660;7.834;2023-02-18T01:26:25;97812.53;;;9.07;100.00
3796;BME280;1913;50.660;7.834;2023-02-18T01:28:50;97810.03;;;9.14;100.00
3796;BME280;1913;50.660;7.834;2023-02-18T01:31:15;97812.84;;;9.12;100.00
3796;BME280;1913;50.660;7.834;2023-02-18T01:33:41;97812.03;;;9.11;100.00
3796;BME280;1913;50.660;7.834;2023-02-18T01:36:08;97805.78;;;9.13;100.00
3796;BME280;1913;50.660;7.834;2023-02-18T01:38:34;97804.09;;;9.20;100.00
3796;BME280;1913;50.660;7.834;2023-02-18T01:40:59;97801.09;;;9.08;100.00
3796;BME280;1913;50.660;7.834;2023-02-18T01:43:25;97798.47;;;9.08;100.00
3796;BME280;1913;50.660;7.834;2023-02-18T01:46:13;97789.78;;;9.07;100.00
3796;BME280;1913;50.660;7.834;2023-02-18T01:51:27;97797.94;;;9.13;100.00
3796;BME280;1913;50.660;7.834;2023-02-18T01:54:12;97786.53;;;9.20;100.00
3796;BME280;1913;50.660;7.834;2023-02-18T01:56:47;97783.31;;;9.18;100.00
3796;BME280;1913;50.660;7.834;2023-02-18T01:59:17;97785.84;;;9.26;100.00
3796;BME280;1913;50.660;7.834;2023-02-18T02:01:44;97779.94;;;9.24;100.00
3796;BME280;1913;50.660;7.834;2023-02-18T02:04:11;97783.56;;;9.23;100.00
3796;BME280;1913;50.660;7.834;2023-02-18T02:06:37;97777.22;;;9.18;100.00
3796;BME280;1913;50.660;7.834;2023-02-18T02:09:06;97776.41;;;9.17;100.00
3796;BME280;1913;50.660;7.834;2023-02-18T02:36:53;97753.91;;;9.08;100.00
3796;BME280;1913;50.660;7.834;2023-02-18T02:39:27;97750.47;;;9.07;100.00
3796;BME280;1913;50.660;7.834;2023-02-18T02:44:48;97745.28;;;8.99;100.00
3796;BME280;1913;50.660;7.834;2023-02-18T02:47:23;97741.50;;;9.02;100.00
3796;BME280;1913;50.660;7.834;2023-02-18T02:50:02;97741.31;;;9.03;100.00
3796;BME280;1913;50.660;7.834;2023-02-18T02:52:36;97742.84;;;8.98;100.00
3796;BME280;1913;50.660;7.834;2023-02-18T02:55:11;97743.66;;;8.98;100.00
3796;BME280;1913;50.660;7.834;2023-02-18T02:57:44;97749.09;;;8.97;100.00
3796;BME280;1913;50.660;7.834;2023-02-18T03:00:11;97734.34;;;8.96;100.00
3796;BME280;1913;50.660;7.834;2023-02-18T03:05:38;97734.63;;;8.86;100.00
3796;BME280;1913;50.660;7.834;2023-02-18T03:16:09;97732.69;;;8.80;100.00
3796;BME280;1913;50.660;7.834;2023-02-18T03:19:09;97733.00;;;8.62;100.00
3796;BME280;1913;50.660;7.834;2023-02-18T03:21:51;97724.34;;;8.61;100.00
3796;BME280;1913;50.660;7.834;2023-02-18T03:24:26;97714.69;;;8.62;100.00
3796;BME280;1913;50.660;7.834;2023-02-18T03:26:58;97711.25;;;8.61;100.00
3796;BME280;1913;50.660;7.834;2023-02-18T03:29:25;97699.84;;;8.54;100.00
3796;BME280;1913;50.660;7.834;2023-02-18T03:31:56;97691.19;;;8.54;100.00
3796;BME280;1913;50.660;7.834;2023-02-18T03:34:25;97690.53;;;8.52;100.00
3796;BME280;1913;50.660;7.834;2023-02-18T03:36:54;97686.84;;;8.61;100.00
3796;BME280;1913;50.660;7.834;2023-02-18T03:39:22;97680.16;;;8.58;100.00
3796;BME280;1913;50.660;7.834;2023-02-18T03:41:50;97684.94;;;8.55;100.00
3796;BME280;1913;50.660;7.834;2023-02-18T03:44:16;97674.09;;;8.58;100.00
3796;BME280;1913;50.660;7.834;2023-02-18T03:46:42;97676.72;;;8.58;100.00
3796;BME280;1913;50.660;7.834;2023-02-18T03:49:09;97674.84;;;8.67;100.00
3796;BME280;1913;50.660;7.834;2023-02-18T03:51:35;97660.72;;;8.68;100.00
3796;BME280;1913;50.660;7.834;2023-02-18T03:54:00;97657.41;;;8.74;100.00
3796;BME280;1913;50.660;7.834;2023-02-18T03:56:26;97660.31;;;8.79;100.00
3796;BME280;1913;50.660;7.834;2023-02-18T03:58:51;97656.88;;;8.78;100.00
3796;BME280;1913;50.660;7.834;2023-02-18T04:01:17;97664.00;;;8.84;100.00
3796;BME280;1913;50.660;7.834;2023-02-18T04:03:42;97659.41;;;8.86;100.00
3796;BME280;1913;50.660;7.834;2023-02-18T04:06:07;97666.28;;;8.87;100.00
3796;BME280;1913;50.660;7.834;2023-02-18T04:08:33;97663.56;;;8.96;100.00
3796;BME280;1913;50.660;7.834;2023-02-18T04:10:58;97676.97;;;9.01;100.00
3796;BME280;1913;50.660;7.834;2023-02-18T04:13:24;97671.53;;;9.02;100.00
3796;BME280;1913;50.660;7.834;2023-02-18T04:15:50;97673.16;;;9.03;100.00
3796;BME280;1913;50.660;7.834;2023-02-18T04:18:16;97674.06;;;9.10;100.00
3796;BME280;1913;50.660;7.834;2023-02-18T04:20:42;97668.56;;;9.05;100.00
3796;BME280;1913;50.660;7.834;2023-02-18T04:23:08;97659.63;;;9.15;100.00
3796;BME280;1913;50.660;7.834;2023-02-18T04:25:33;97664.00;;;9.14;100.00
3796;BME280;1913;50.660;7.834;2023-02-18T04:27:59;97657.97;;;9.14;100.00
3796;BME280;1913;50.660;7.834;2023-02-18T04:30:24;97665.31;;;9.18;100.00
3796;BME280;1913;50.660;7.834;2023-02-18T04:32:50;97660.22;;;9.17;100.00
3796;BME280;1913;50.660;7.834;2023-02-18T04:35:16;97647.75;;;9.19;100.00
3796;BME280;1913;50.660;7.834;2023-02-18T04:37:41;97652.56;;;9.15;100.00
3796;BME280;1913;50.660;7.834;2023-02-18T04:40:07;97651.91;;;9.13;100.00
3796;BME280;1913;50.660;7.834;2023-02-18T04:42:33;97660.69;;;9.20;100.00
3796;BME280;1913;50.660;7.834;2023-02-18T04:44:59;97649.03;;;9.08;100.00
3796;BME280;1913;50.660;7.834;2023-02-18T04:47:24;97648.28;;;9.14;100.00
3796;BME280;1913;50.660;7.834;2023-02-18T04:49:51;97623.06;;;9.13;100.00
3796;BME280;1913;50.660;7.834;2023-02-18T04:52:17;97632.41;;;9.01;100.00
3796;BME280;1913;50.660;7.834;2023-02-18T04:54:42;97636.38;;;8.97;100.00
3796;BME280;1913;50.660;7.834;2023-02-18T04:57:08;97634.38;;;8.84;100.00
3796;BME280;1913;50.660;7.834;2023-02-18T04:59:33;97626.88;;;8.81;100.00
3796;BME280;1913;50.660;7.834;2023-02-18T05:01:59;97631.66;;;8.77;100.00
3796;BME280;1913;50.660;7.834;2023-02-18T05:04:24;97628.69;;;8.80;100.00
3796;BME280;1913;50.660;7.834;2023-02-18T05:06:50;97620.63;;;8.67;100.00
3796;BME280;1913;50.660;7.834;2023-02-18T05:09:15;97617.41;;;8.80;100.00
3796;BME280;1913;50.660;7.834;2023-02-18T05:11:42;97620.09;;;8.72;100.00
3796;BME280;1913;50.660;7.834;2023-02-18T05:14:08;97620.28;;;8.70;100.00
3796;BME280;1913;50.660;7.834;2023-02-18T05:16:33;97624.50;;;8.71;100.00
3796;BME280;1913;50.660;7.834;2023-02-18T05:18:58;97610.34;;;8.66;100.00
3796;BME280;1913;50.660;7.834;2023-02-18T05:21:24;97614.69;;;8.73;100.00
3796;BME280;1913;50.660;7.834;2023-02-18T05:23:49;97611.41;;;8.71;100.00
3796;BME280;1913;50.660;7.834;2023-02-18T05:26:15;97605.47;;;8.77;100.00
3796;BME280;1913;50.660;7.834;2023-02-18T05:28:40;97608.78;;;8.71;100.00
3796;BME280;1913;50.660;7.834;2023-02-18T05:31:06;97603.03;;;8.76;100.00
3796;BME280;1913;50.660;7.834;2023-02-18T05:33:31;97600.66;;;8.66;100.00
3796;BME280;1913;50.660;7.834;2023-02-18T05:35:57;97598.06;;;8.66;100.00
3796;BME280;1913;50.660;7.834;2023-02-18T05:38:22;97600.47;;;8.68;100.00
3796;BME280;1913;50.660;7.834;2023-02-18T05:40:48;97589.94;;;8.61;100.00
3796;BME280;1913;50.660;7.834;2023-02-18T05:43:13;97591.44;;;8.55;100.00
3796;BME280;1913;50.660;7.834;2023-02-18T05:45:39;97587.81;;;8.56;100.00
3796;BME280;1913;50.660;7.834;2023-02-18T05:48:04;97585.41;;;8.55;100.00
3796;BME280;1913;50.660;7.834;2023-02-18T05:50:30;97576.88;;;8.53;100.00
3796;BME280;1913;50.660;7.834;2023-02-18T05:52:56;97574.81;;;8.48;100.00
3796;BME280;1913;50.660;7.834;2023-02-18T05:55:21;97575.28;;;8.52;100.00
3796;BME280;1913;50.660;7.834;2023-02-18T05:57:48;97570.50;;;8.55;100.00
3796;BME280;1913;50.660;7.834;2023-02-18T06:00:14;97572.09;;;8.56;100.00
3796;BME280;1913;50.660;7.834;2023-02-18T06:02:39;97570.13;;;8.58;100.00
3796;BME280;1913;50.660;7.834;2023-02-18T06:05:05;97568.53;;;8.57;100.00
3796;BME280;1913;50.660;7.834;2023-02-18T06:07:31;97574.22;;;8.61;100.00
3796;BME280;1913;50.660;7.834;2023-02-18T06:09:57;97573.00;;;8.63;100.00
3796;BME280;1913;50.660;7.834;2023-02-18T06:12:22;97567.16;;;8.61;100.00
3796;BME280;1913;50.660;7.834;2023-02-18T06:14:47;97570.03;;;8.67;100.00
3796;BME280;1913;50.660;7.834;2023-02-18T06:17:14;97564.53;;;8.61;100.00
3796;BME280;1913;50.660;7.834;2023-02-18T06:19:40;97559.47;;;8.60;100.00
3796;BME280;1913;50.660;7.834;2023-02-18T06:22:06;97559.31;;;8.61;100.00
3796;BME280;1913;50.660;7.834;2023-02-18T06:24:32;97562.53;;;8.63;100.00
3796;BME280;1913;50.660;7.834;2023-02-18T06:26:57;97561.56;;;8.65;100.00
3796;BME280;1913;50.660;7.834;2023-02-18T06:29:23;97565.59;;;8.67;100.00
3796;BME280;1913;50.660;7.834;2023-02-18T06:31:48;97559.84;;;8.72;100.00
3796;BME280;1913;50.660;7.834;2023-02-18T06:34:14;97557.38;;;8.70;100.00
3796;BME280;1913;50.660;7.834;2023-02-18T06:36:42;97549.88;;;8.67;100.00
3796;BME280;1913;50.660;7.834;2023-02-18T06:39:07;97548.28;;;8.66;100.00
3796;BME280;1913;50.660;7.834;2023-02-18T06:41:33;97543.28;;;8.71;100.00
3796;BME280;1913;50.660;7.834;2023-02-18T06:43:58;97541.13;;;8.75;100.00
3796;BME280;1913;50.660;7.834;2023-02-18T06:46:24;97539.34;;;8.75;100.00
3796;BME280;1913;50.660;7.834;2023-02-18T06:48:49;97538.50;;;8.75;100.00
3796;BME280;1913;50.660;7.834;2023-02-18T06:51:15;97537.78;;;8.81;100.00
3796;BME280;1913;50.660;7.834;2023-02-18T06:53:41;97533.69;;;8.78;100.00
3796;BME280;1913;50.660;7.834;2023-02-18T06:56:08;97531.53;;;8.82;100.00
3796;BME280;1913;50.660;7.834;2023-02-18T06:58:33;97527.56;;;8.86;100.00
3796;BME280;1913;50.660;7.834;2023-02-18T07:00:58;97536.25;;;8.86;100.00
3796;BME280;1913;50.660;7.834;2023-02-18T07:03:24;97531.44;;;8.90;100.00
3796;BME280;1913;50.660;7.834;2023-02-18T07:05:49;97526.00;;;8.92;100.00
3796;BME280;1913;50.660;7.834;2023-02-18T07:08:15;97530.81;;;8.88;100.00
3796;BME280;1913;50.660;7.834;2023-02-18T07:10:40;97526.81;;;8.92;100.00
3796;BME280;1913;50.660;7.834;2023-02-18T07:13:06;97534.16;;;8.97;100.00
3796;BME280;1913;50.660;7.834;2023-02-18T07:15:31;97532.88;;;8.93;100.00
3796;BME280;1913;50.660;7.834;2023-02-18T07:17:57;97534.41;;;9.02;100.00
3796;BME280;1913;50.660;7.834;2023-02-18T07:20:23;97521.84;;;8.97;100.00
3796;BME280;1913;50.660;7.834;2023-02-18T07:22:49;97520.94;;;9.05;100.00
3796;BME280;1913;50.660;7.834;2023-02-18T07:25:14;97514.31;;;9.09;100.00
3796;BME280;1913;50.660;7.834;2023-02-18T07:27:40;97510.91;;;9.08;100.00
3796;BME280;1913;50.660;7.834;2023-02-18T07:30:06;97518.94;;;9.07;100.00
3796;BME280;1913;50.660;7.834;2023-02-18T07:32:32;97516.75;;;9.10;100.00
3796;BME280;1913;50.660;7.834;2023-02-18T07:34:58;97521.91;;;9.19;100.00
3796;BME280;1913;50.660;7.834;2023-02-18T07:37:23;97514.91;;;9.26;100.00
3796;BME280;1913;50.660;7.834;2023-02-18T07:39:49;97532.38;;;9.19;100.00
3796;BME280;1913;50.660;7.834;2023-02-18T07:42:14;97535.19;;;9.17;100.00
3796;BME280;1913;50.660;7.834;2023-02-18T07:44:40;97535.19;;;9.17;100.00
3796;BME280;1913;50.660;7.834;2023-02-18T07:47:07;97538.25;;;9.21;100.00
3796;BME280;1913;50.660;7.834;2023-02-18T07:49:34;97549.53;;;9.21;100.00
3796;BME280;1913;50.660;7.834;2023-02-18T07:52:00;97553.97;;;9.21;100.00
3796;BME280;1913;50.660;7.834;2023-02-18T07:54:26;97558.03;;;9.23;100.00
3796;BME280;1913;50.660;7.834;2023-02-18T07:56:51;97569.63;;;9.14;100.00
3796;BME280;1913;50.660;7.834;2023-02-18T07:59:18;97574.50;;;9.17;100.00
3796;BME280;1913;50.660;7.834;2023-02-18T08:01:44;97583.00;;;9.19;100.00
3796;BME280;1913;50.660;7.834;2023-02-18T08:04:09;97564.28;;;9.22;100.00
3796;BME280;1913;50.660;7.834;2023-02-18T08:06:36;97561.56;;;9.30;100.00
3796;BME280;1913;50.660;7.834;2023-02-18T08:09:03;97568.16;;;9.26;100.00
3796;BME280;1913;50.660;7.834;2023-02-18T08:11:29;97572.56;;;9.41;100.00
3796;BME280;1913;50.660;7.834;2023-02-18T08:13:55;97566.44;;;9.33;100.00
3796;BME280;1913;50.660;7.834;2023-02-18T08:16:21;97559.19;;;9.35;100.00
3796;BME280;1913;50.660;7.834;2023-02-18T08:18:48;97568.25;;;9.33;100.00
3796;BME280;1913;50.660;7.834;2023-02-18T08:21:15;97567.00;;;9.29;100.00
3796;BME280;1913;50.660;7.834;2023-02-18T08:23:41;97566.59;;;9.32;100.00
3796;BME280;1913;50.660;7.834;2023-02-18T08:26:08;97570.88;;;9.33;100.00
3796;BME280;1913;50.660;7.834;2023-02-18T08:28:33;97567.50;;;9.39;100.00
3796;BME280;1913;50.660;7.834;2023-02-18T08:30:59;97557.41;;;9.36;100.00
3796;BME280;1913;50.660;7.834;2023-02-18T08:33:24;97553.81;;;9.22;100.00
3796;BME280;1913;50.660;7.834;2023-02-18T08:35:52;97554.97;;;9.20;100.00
3796;BME280;1913;50.660;7.834;2023-02-18T08:38:18;97564.19;;;9.30;100.00
3796;BME280;1913;50.660;7.834;2023-02-18T08:40:44;97567.38;;;9.26;100.00
3796;BME280;1913;50.660;7.834;2023-02-18T08:43:10;97567.59;;;9.31;100.00
3796;BME280;1913;50.660;7.834;2023-02-18T08:45:39;97571.34;;;9.22;100.00
3796;BME280;1913;50.660;7.834;2023-02-18T08:48:06;97586.16;;;9.29;100.00
3796;BME280;1913;50.660;7.834;2023-02-18T08:50:32;97573.94;;;9.37;100.00
3796;BME280;1913;50.660;7.834;2023-02-18T08:52:58;97578.91;;;9.31;100.00
3796;BME280;1913;50.660;7.834;2023-02-18T08:55:31;97571.47;;;9.35;100.00
3796;BME280;1913;50.660;7.834;2023-02-18T08:57:57;97568.56;;;9.45;100.00
3796;BME280;1913;50.660;7.834;2023-02-18T09:00:23;97574.19;;;9.42;100.00
3796;BME280;1913;50.660;7.834;2023-02-18T09:02:48;97587.22;;;9.50;100.00
3796;BME280;1913;50.660;7.834;2023-02-18T09:05:14;97593.56;;;9.41;100.00
3796;BME280;1913;50.660;7.834;2023-02-18T09:07:40;97599.13;;;9.52;100.00
3796;BME280;1913;50.660;7.834;2023-02-18T09:10:06;97593.34;;;9.42;100.00
3796;BME280;1913;50.660;7.834;2023-02-18T09:12:32;97604.94;;;9.48;100.00
3796;BME280;1913;50.660;7.834;2023-02-18T09:14:57;97606.75;;;9.47;100.00
3796;BME280;1913;50.660;7.834;2023-02-18T09:17:23;97610.28;;;9.40;100.00
3796;BME280;1913;50.660;7.834;2023-02-18T09:19:48;97609.56;;;9.31;100.00
3796;BME280;1913;50.660;7.834;2023-02-18T09:22:14;97609.34;;;9.11;100.00
3796;BME280;1913;50.660;7.834;2023-02-18T09:24:41;97605.28;;;9.08;100.00
3796;BME280;1913;50.660;7.834;2023-02-18T09:27:06;97609.63;;;9.01;100.00
3796;BME280;1913;50.660;7.834;2023-02-18T09:29:32;97606.09;;;8.94;100.00
3796;BME280;1913;50.660;7.834;2023-02-18T09:31:59;97607.81;;;9.02;100.00
3796;BME280;1913;50.660;7.834;2023-02-18T09:34:26;97610.22;;;9.03;100.00
3796;BME280;1913;50.660;7.834;2023-02-18T09:36:51;97607.91;;;9.08;100.00
3796;BME280;1913;50.660;7.834;2023-02-18T09:39:17;97611.41;;;9.16;100.00
3796;BME280;1913;50.660;7.834;2023-02-18T09:41:49;97606.63;;;9.04;100.00
3796;BME280;1913;50.660;7.834;2023-02-18T09:44:22;97618.28;;;8.87;100.00
3796;BME280;1913;50.660;7.834;2023-02-18T09:46:52;97619.00;;;8.66;100.00
3796;BME280;1913;50.660;7.834;2023-02-18T09:49:22;97627.75;;;8.44;100.00
3796;BME280;1913;50.660;7.834;2023-02-18T09:51:49;97608.31;;;8.38;100.00
3796;BME280;1913;50.660;7.834;2023-02-18T09:54:17;97623.34;;;8.36;100.00
3796;BME280;1913;50.660;7.834;2023-02-18T09:56:44;97609.97;;;8.31;100.00
3796;BME280;1913;50.660;7.834;2023-02-18T09:59:15;97612.25;;;8.34;100.00
3796;BME280;1913;50.660;7.834;2023-02-18T10:01:42;97600.31;;;8.31;100.00
3796;BME280;1913;50.660;7.834;2023-02-18T10:06:37;97623.63;;;8.03;100.00
3796;BME280;1913;50.660;7.834;2023-02-18T10:09:08;97608.09;;;8.02;100.00
3796;BME280;1913;50.660;7.834;2023-02-18T10:11:42;97610.47;;;8.11;100.00
3796;BME280;1913;50.660;7.834;2023-02-18T10:14:12;97600.63;;;8.13;100.00
3796;BME280;1913;50.660;7.834;2023-02-18T10:16:39;97590.91;;;8.22;100.00
3796;BME280;1913;50.660;7.834;2023-02-18T10:19:21;97588.38;;;8.29;100.00
3796;BME280;1913;50.660;7.834;2023-02-18T10:21:48;97583.09;;;8.37;100.00
3796;BME280;1913;50.660;7.834;2023-02-18T10:24:27;97580.88;;;8.49;100.00
3796;BME280;1913;50.660;7.834;2023-02-18T10:26:54;97567.78;;;8.63;100.00
3796;BME280;1913;50.660;7.834;2023-02-18T10:29:20;97573.75;;;8.72;100.00
3796;BME280;1913;50.660;7.834;2023-02-18T10:40:13;97570.94;;;8.88;100.00
3796;BME280;1913;50.660;7.834;2023-02-18T10:42:53;97570.94;;;8.88;100.00
3796;BME280;1913;50.660;7.834;2023-02-18T10:45:37;97559.28;;;8.91;100.00
3796;BME280;1913;50.660;7.834;2023-02-18T10:48:31;97562.25;;;9.03;100.00
3796;BME280;1913;50.660;7.834;2023-02-18T10:51:14;97558.81;;;9.02;100.00
3796;BME280;1913;50.660;7.834;2023-02-18T10:53:42;97561.44;;;9.02;100.00
3796;BME280;1913;50.660;7.834;2023-02-18T10:56:39;97528.63;;;8.92;100.00
3796;BME280;1913;50.660;7.834;2023-02-18T11:01:39;97543.81;;;8.96;100.00
3796;BME280;1913;50.660;7.834;2023-02-18T11:04:27;97542.28;;;9.02;100.00
3796;BME280;1913;50.660;7.834;2023-02-18T11:07:03;97537.13;;;8.94;100.00
3796;BME280;1913;50.660;7.834;2023-02-18T11:12:38;97542.47;;;9.00;100.00
3796;BME280;1913;50.660;7.834;2023-02-18T11:17:44;97530.09;;;8.79;100.00
3796;BME280;1913;50.660;7.834;2023-02-18T11:22:42;97538.25;;;8.55;100.00
3796;BME280;1913;50.660;7.834;2023-02-18T11:25:22;97533.72;;;8.49;100.00
3796;BME280;1913;50.660;7.834;2023-02-18T11:27:55;97547.19;;;8.60;100.00
3796;BME280;1913;50.660;7.834;2023-02-18T11:30:38;97537.91;;;8.43;100.00
3796;BME280;1913;50.660;7.834;2023-02-18T11:33:17;97533.34;;;8.37;100.00
3796;BME280;1913;50.660;7.834;2023-02-18T11:35:51;97552.03;;;8.34;100.00
3796;BME280;1913;50.660;7.834;2023-02-18T11:38:33;97536.28;;;8.19;100.00
3796;BME280;1913;50.660;7.834;2023-02-18T11:41:10;97547.38;;;8.21;100.00
3796;BME280;1913;50.660;7.834;2023-02-18T11:43:41;97548.94;;;8.30;100.00
3796;BME280;1913;50.660;7.834;2023-02-18T11:46:29;97541.34;;;8.21;100.00
3796;BME280;1913;50.660;7.834;2023-02-18T11:48:55;97553.06;;;8.10;100.00
3796;BME280;1913;50.660;7.834;2023-02-18T11:51:33;97551.53;;;8.01;100.00
3796;BME280;1913;50.660;7.834;2023-02-18T11:59:25;97541.69;;;8.18;100.00
3796;BME280;1913;50.660;7.834;2023-02-18T12:08:18;97545.16;;;8.33;100.00
3796;BME280;1913;50.660;7.834;2023-02-18T12:10:51;97547.97;;;8.46;100.00
3796;BME280;1913;50.660;7.834;2023-02-18T12:18:48;97546.66;;;8.50;100.00
3796;BME280;1913;50.660;7.834;2023-02-18T12:40:29;97534.69;;;8.33;100.00
3796;BME280;1913;50.660;7.834;2023-02-18T12:45:58;97524.38;;;8.16;100.00
3796;BME280;1913;50.660;7.834;2023-02-18T12:48:36;97522.41;;;8.19;100.00
3796;BME280;1913;50.660;7.834;2023-02-18T13:01:47;97537.34;;;8.10;100.00
3796;BME280;1913;50.660;7.834;2023-02-18T13:10:17;97545.63;;;8.36;100.00
3796;BME280;1913;50.660;7.834;2023-02-18T13:12:53;97535.50;;;8.19;100.00
3796;BME280;1913;50.660;7.834;2023-02-18T13:18:21;97546.94;;;8.18;100.00
3796;BME280;1913;50.660;7.834;2023-02-18T13:20:54;97544.03;;;8.12;100.00
3796;BME280;1913;50.660;7.834;2023-02-18T13:23:27;97540.06;;;8.16;100.00
3796;BME280;1913;50.660;7.834;2023-02-18T13:26:00;97552.47;;;8.23;100.00
3796;BME280;1913;50.660;7.834;2023-02-18T13:28:48;97536.19;;;8.12;100.00
3796;BME280;1913;50.660;7.834;2023-02-18T13:34:09;97532.19;;;8.39;100.00
3796;BME280;1913;50.660;7.834;2023-02-18T13:37:02;97538.09;;;8.19;100.00
3796;BME280;1913;50.660;7.834;2023-02-18T13:39:30;97532.13;;;8.25;100.00
3796;BME280;1913;50.660;7.834;2023-02-18T13:52:49;97530.25;;;8.19;100.00
3796;BME280;1913;50.660;7.834;2023-02-18T13:55:26;97536.09;;;8.21;100.00
3796;BME280;1913;50.660;7.834;2023-02-18T13:57:59;97541.44;;;8.27;100.00
3796;BME280;1913;50.660;7.834;2023-02-18T14:00:34;97536.56;;;8.24;100.00
3796;BME280;1913;50.660;7.834;2023-02-18T14:03:19;97525.28;;;8.24;100.00
3796;BME280;1913;50.660;7.834;2023-02-18T14:05:45;97537.25;;;8.41;100.00
3796;BME280;1913;50.660;7.834;2023-02-18T14:08:14;97530.38;;;8.40;100.00
3796;BME280;1913;50.660;7.834;2023-02-18T14:10:40;97527.81;;;8.32;100.00
3796;BME280;1913;50.660;7.834;2023-02-18T14:13:22;97531.44;;;8.31;100.00
3796;BME280;1913;50.660;7.834;2023-02-18T14:15:58;97536.78;;;8.37;100.00
3796;BME280;1913;50.660;7.834;2023-02-18T14:23:38;97535.03;;;8.30;100.00
3796;BME280;1913;50.660;7.834;2023-02-18T14:26:07;97525.09;;;8.25;100.00
3796;BME280;1913;50.660;7.834;2023-02-18T14:28:35;97534.84;;;8.31;100.00
3796;BME280;1913;50.660;7.834;2023-02-18T14:33:30;97532.69;;;8.20;100.00
3796;BME280;1913;50.660;7.834;2023-02-18T14:36:36;97532.69;;;8.20;100.00
3796;BME280;1913;50.660;7.834;2023-02-18T14:49:55;97530.88;;;8.21;100.00
3796;BME280;1913;50.660;7.834;2023-02-18T14:52:37;97546.22;;;8.24;100.00
3796;BME280;1913;50.660;7.834;2023-02-18T14:55:06;97538.19;;;8.25;100.00
3796;BME280;1913;50.660;7.834;2023-02-18T14:57:49;97521.66;;;8.25;100.00
3796;BME280;1913;50.660;7.834;2023-02-18T15:00:17;97521.50;;;8.26;100.00
3796;BME280;1913;50.660;7.834;2023-02-18T15:02:48;97532.69;;;8.20;100.00
3796;BME280;1913;50.660;7.834;2023-02-18T15:05:17;97534.50;;;8.20;100.00
3796;BME280;1913;50.660;7.834;2023-02-18T15:08:04;97527.63;;;8.19;100.00
3796;BME280;1913;50.660;7.834;2023-02-18T15:10:39;97531.56;;;8.14;100.00
3796;BME280;1913;50.660;7.834;2023-02-18T15:15:46;97525.00;;;8.19;100.00
3796;BME280;1913;50.660;7.834;2023-02-18T15:20:56;97531.56;;;8.14;100.00
3796;BME280;1913;50.660;7.834;2023-02-18T15:23:24;97530.06;;;8.20;100.00
3796;BME280;1913;50.660;7.834;2023-02-18T15:25:51;97524.19;;;8.18;100.00
3796;BME280;1913;50.660;7.834;2023-02-18T15:28:30;97522.75;;;8.15;100.00
3796;BME280;1913;50.660;7.834;2023-02-18T15:31:02;97526.53;;;8.28;100.00
3796;BME280;1913;50.660;7.834;2023-02-18T15:33:28;97529.97;;;8.13;100.00
3796;BME280;1913;50.660;7.834;2023-02-18T15:36:02;97531.13;;;8.11;100.00
3796;BME280;1913;50.660;7.834;2023-02-18T15:38:28;97515.41;;;8.11;100.00
3796;BME280;1913;50.660;7.834;2023-02-18T15:40:54;97524.09;;;8.11;100.00
3796;BME280;1913;50.660;7.834;2023-02-18T15:43:22;97526.06;;;8.09;100.00
3796;BME280;1913;50.660;7.834;2023-02-18T15:45:50;97525.19;;;8.17;100.00
3796;BME280;1913;50.660;7.834;2023-02-18T15:48:30;97523.91;;;8.13;100.00
3796;BME280;1913;50.660;7.834;2023-02-18T15:50:57;97533.50;;;8.21;100.00
3796;BME280;1913;50.660;7.834;2023-02-18T15:53:26;97520.75;;;8.18;100.00
3796;BME280;1913;50.660;7.834;2023-02-18T15:55:53;97528.44;;;8.19;100.00
3796;BME280;1913;50.660;7.834;2023-02-18T15:58:26;97519.22;;;8.23;100.00
3796;BME280;1913;50.660;7.834;2023-02-18T16:00:55;97517.78;;;8.21;100.00
3796;BME280;1913;50.660;7.834;2023-02-18T16:03:26;97519.41;;;8.22;100.00
3796;BME280;1913;50.660;7.834;2023-02-18T16:06:18;97513.91;;;8.16;100.00
3796;BME280;1913;50.660;7.834;2023-02-18T16:11:30;97513.09;;;8.16;100.00
3796;BME280;1913;50.660;7.834;2023-02-18T16:13:57;97517.88;;;8.12;100.00